Terminal Aerodrome Forecast
Issued by NWS Jackson, MS

Home | Current Version | Previous Version | Text Only | Print | Product List | Glossary On
Versions: 1 2 3 4 5 6 7 8 9 10 11 12 13
000
FTUS44 KJAN 011700
TAFJAN
TAF
KJAN 011733Z 0118/0218 18011G20KT P6SM VCSH SCT015 BKN025
     FM012200 24013G21KT 5SM TSRA BR SCT006 OVC015CB
     FM020200 29012G20KT P6SM BKN025
     FM020400 31012G19KT P6SM OVC050=

USA.gov is the U.S. government's official web portal to all federal, state and local government web resources and services.